Huvudsida
METAR-TAF:

METAR-TAF

Flygplatser :

Larnacas internationella flygplats

Larnaca, Cypern

latitud: 34-53N, longitud: 033-38E, höjd: 2 m

Aktuellt väderrapport

Denna rapport gjordes för 20 minuter sedan, klockan 01:00 UTC
Vind 2 kt varierande vindriktning
Temperatur 21°C
Fuktighet 69%
Tryck 1011 hPa
Sikt 10 km eller mer
Inga moln under 1 500 m eller inga cumulonimbus

METAR: LCLK 230100Z VRB02KT CAVOK 21/15 Q1011 NOSIG

Tid: 04:20 (01:20 UTC)

Väderprognos

Denna rapport gjordes för 1 timme och 50 minuter sedan, klockan 23:30 UTC
Prognos gäller från 23 kl. 00 UTC till 23 kl. 24 UTC
Vind 6 kt från nord
Sikt 10 km eller mer
Inga moln under 1 500 m eller inga cumulonimbus
Blir
från 23 kl. 07 UTC till 23 kl. 10 UTC
Vind 10 kt från sydost
Blir
från 23 kl. 11 UTC till 23 kl. 13 UTC
Vind 14 kt från syd/sydväst
Blir
från 23 kl. 16 UTC till 23 kl. 18 UTC
Vind 6 kt från väst/sydväst

TAF: LCLK 222330Z 2300/2324 35006KT CAVOK BECMG 2307/2310 14010KT BECMG 2311/2313 21014KT BECMG 2316/2318 25006KT

Aktuella väderrapporter och prognoser från 4000 flygplatser (METAR- och TAF-rapporter).

De tillgängliga stationerna syns som gula och röda prickar på kartan.

För musen över prickarna för att se namnen på stationerna.

Klicka sedan för att få väderrapporter och prognoser.

För att ändra kartan: Klicka på de gröna knapparna med ett svart kors på för att zooma in; den gröna knappen med ett streck på för att zooma ut; eller på de gröna pilarna för angränsande kartor.


METAR-TAF: